sensor_id;sensor_type;location;lat;lon;timestamp;P1;durP1;ratioP1;P2;durP2;ratioP2
75246;SDS011;63844;50.042;19.224;2023-08-31T00:00:23;6.90;;;4.70;;
75246;SDS011;63844;50.042;19.224;2023-08-31T00:02:18;5.90;;;4.20;;
75246;SDS011;63844;50.042;19.224;2023-08-31T00:03:54;7.70;;;5.00;;
75246;SDS011;63844;50.042;19.224;2023-08-31T00:05:43;6.10;;;4.40;;
75246;SDS011;63844;50.042;19.224;2023-08-31T00:07:20;6.40;;;4.20;;
75246;SDS011;63844;50.042;19.224;2023-08-31T00:08:57;7.40;;;4.60;;
75246;SDS011;63844;50.042;19.224;2023-08-31T00:10:33;6.50;;;4.50;;
75246;SDS011;63844;50.042;19.224;2023-08-31T00:12:10;8.30;;;4.60;;
75246;SDS011;63844;50.042;19.224;2023-08-31T00:13:46;5.60;;;3.90;;
75246;SDS011;63844;50.042;19.224;2023-08-31T00:15:24;5.10;;;3.70;;
75246;SDS011;63844;50.042;19.224;2023-08-31T00:16:59;6.20;;;4.30;;
75246;SDS011;63844;50.042;19.224;2023-08-31T00:18:35;6.30;;;3.90;;
75246;SDS011;63844;50.042;19.224;2023-08-31T00:22:13;5.40;;;3.60;;
75246;SDS011;63844;50.042;19.224;2023-08-31T00:23:48;4.70;;;3.60;;
75246;SDS011;63844;50.042;19.224;2023-08-31T00:25:30;5.50;;;3.50;;
75246;SDS011;63844;50.042;19.224;2023-08-31T00:27:21;9.40;;;3.40;;
75246;SDS011;63844;50.042;19.224;2023-08-31T00:29:17;5.00;;;3.70;;
75246;SDS011;63844;50.042;19.224;2023-08-31T00:31:31;6.40;;;3.60;;
75246;SDS011;63844;50.042;19.224;2023-08-31T00:33:18;5.30;;;3.10;;
75246;SDS011;63844;50.042;19.224;2023-08-31T00:35:13;5.00;;;3.50;;
75246;SDS011;63844;50.042;19.224;2023-08-31T00:37:03;6.30;;;3.80;;
75246;SDS011;63844;50.042;19.224;2023-08-31T00:38:41;5.50;;;3.50;;
75246;SDS011;63844;50.042;19.224;2023-08-31T00:40:44;5.80;;;3.40;;
75246;SDS011;63844;50.042;19.224;2023-08-31T00:42:29;4.80;;;3.50;;
75246;SDS011;63844;50.042;19.224;2023-08-31T00:44:10;4.30;;;3.70;;
75246;SDS011;63844;50.042;19.224;2023-08-31T00:46:05;5.20;;;3.60;;
75246;SDS011;63844;50.042;19.224;2023-08-31T00:48:19;6.70;;;3.50;;
75246;SDS011;63844;50.042;19.224;2023-08-31T00:49:56;4.90;;;3.20;;
75246;SDS011;63844;50.042;19.224;2023-08-31T00:52:01;4.40;;;3.10;;
75246;SDS011;63844;50.042;19.224;2023-08-31T00:53:42;5.40;;;3.60;;
75246;SDS011;63844;50.042;19.224;2023-08-31T00:55:25;4.90;;;3.80;;
75246;SDS011;63844;50.042;19.224;2023-08-31T00:57:12;7.80;;;4.30;;
75246;SDS011;63844;50.042;19.224;2023-08-31T00:59:17;4.60;;;3.20;;
75246;SDS011;63844;50.042;19.224;2023-08-31T01:01:11;4.20;;;3.30;;
75246;SDS011;63844;50.042;19.224;2023-08-31T01:04:25;3.50;;;2.70;;
75246;SDS011;63844;50.042;19.224;2023-08-31T01:08:29;3.70;;;2.80;;
75246;SDS011;63844;50.042;19.224;2023-08-31T01:10:39;6.10;;;3.90;;
75246;SDS011;63844;50.042;19.224;2023-08-31T01:12:44;5.40;;;3.20;;
75246;SDS011;63844;50.042;19.224;2023-08-31T01:14:37;4.10;;;3.10;;
75246;SDS011;63844;50.042;19.224;2023-08-31T01:16:47;4.20;;;3.10;;
75246;SDS011;63844;50.042;19.224;2023-08-31T01:19:03;4.70;;;4.00;;
75246;SDS011;63844;50.042;19.224;2023-08-31T01:21:32;5.00;;;3.30;;
75246;SDS011;63844;50.042;19.224;2023-08-31T01:23:55;5.90;;;3.30;;
75246;SDS011;63844;50.042;19.224;2023-08-31T01:25:33;4.50;;;3.40;;
75246;SDS011;63844;50.042;19.224;2023-08-31T01:27:11;4.10;;;3.20;;
75246;SDS011;63844;50.042;19.224;2023-08-31T01:29:10;5.40;;;4.10;;
75246;SDS011;63844;50.042;19.224;2023-08-31T01:30:47;4.80;;;3.30;;
75246;SDS011;63844;50.042;19.224;2023-08-31T01:32:22;3.80;;;2.80;;
75246;SDS011;63844;50.042;19.224;2023-08-31T01:34:02;5.50;;;3.70;;
75246;SDS011;63844;50.042;19.224;2023-08-31T01:35:45;4.90;;;3.60;;
75246;SDS011;63844;50.042;19.224;2023-08-31T01:37:39;6.10;;;3.10;;
75246;SDS011;63844;50.042;19.224;2023-08-31T01:41:55;4.10;;;3.20;;
75246;SDS011;63844;50.042;19.224;2023-08-31T01:43:50;4.40;;;3.40;;
75246;SDS011;63844;50.042;19.224;2023-08-31T01:45:29;5.70;;;3.70;;
75246;SDS011;63844;50.042;19.224;2023-08-31T01:47:06;4.10;;;3.20;;
75246;SDS011;63844;50.042;19.224;2023-08-31T01:48:47;5.60;;;3.30;;
75246;SDS011;63844;50.042;19.224;2023-08-31T01:50:27;5.20;;;3.50;;
75246;SDS011;63844;50.042;19.224;2023-08-31T01:52:06;5.00;;;3.70;;
75246;SDS011;63844;50.042;19.224;2023-08-31T01:53:44;4.50;;;3.40;;
75246;SDS011;63844;50.042;19.224;2023-08-31T01:55:48;4.50;;;3.20;;
75246;SDS011;63844;50.042;19.224;2023-08-31T01:57:23;5.50;;;4.10;;
75246;SDS011;63844;50.042;19.224;2023-08-31T01:58:58;6.00;;;3.10;;
75246;SDS011;63844;50.042;19.224;2023-08-31T02:01:00;8.90;;;4.40;;
75246;SDS011;63844;50.042;19.224;2023-08-31T02:02:35;6.90;;;4.10;;
75246;SDS011;63844;50.042;19.224;2023-08-31T02:04:10;6.50;;;4.00;;
75246;SDS011;63844;50.042;19.224;2023-08-31T02:05:49;4.90;;;4.20;;
75246;SDS011;63844;50.042;19.224;2023-08-31T02:07:27;4.60;;;3.60;;
75246;SDS011;63844;50.042;19.224;2023-08-31T02:09:06;4.80;;;3.50;;
75246;SDS011;63844;50.042;19.224;2023-08-31T02:10:44;6.50;;;3.70;;
75246;SDS011;63844;50.042;19.224;2023-08-31T02:12:23;4.60;;;3.40;;
75246;SDS011;63844;50.042;19.224;2023-08-31T02:14:20;5.80;;;3.70;;
75246;SDS011;63844;50.042;19.224;2023-08-31T02:16:04;6.20;;;3.90;;
75246;SDS011;63844;50.042;19.224;2023-08-31T02:17:39;5.50;;;4.00;;
75246;SDS011;63844;50.042;19.224;2023-08-31T02:19:19;5.40;;;4.00;;
75246;SDS011;63844;50.042;19.224;2023-08-31T02:20:59;4.20;;;3.40;;
75246;SDS011;63844;50.042;19.224;2023-08-31T02:22:50;9.50;;;4.70;;
75246;SDS011;63844;50.042;19.224;2023-08-31T02:24:28;8.20;;;4.00;;
75246;SDS011;63844;50.042;19.224;2023-08-31T02:26:29;9.20;;;3.80;;
75246;SDS011;63844;50.042;19.224;2023-08-31T02:28:05;5.20;;;3.90;;
75246;SDS011;63844;50.042;19.224;2023-08-31T02:29:41;5.90;;;3.90;;
75246;SDS011;63844;50.042;19.224;2023-08-31T02:31:20;5.40;;;3.50;;
75246;SDS011;63844;50.042;19.224;2023-08-31T02:32:57;4.60;;;3.90;;
75246;SDS011;63844;50.042;19.224;2023-08-31T02:35:10;8.20;;;3.60;;
75246;SDS011;63844;50.042;19.224;2023-08-31T02:36:48;4.50;;;3.80;;
75246;SDS011;63844;50.042;19.224;2023-08-31T02:38:43;5.30;;;3.30;;
75246;SDS011;63844;50.042;19.224;2023-08-31T02:40:47;5.70;;;3.90;;
75246;SDS011;63844;50.042;19.224;2023-08-31T02:43:07;5.80;;;3.70;;
75246;SDS011;63844;50.042;19.224;2023-08-31T02:45:24;5.00;;;3.70;;
75246;SDS011;63844;50.042;19.224;2023-08-31T02:47:09;6.70;;;4.00;;
75246;SDS011;63844;50.042;19.224;2023-08-31T02:49:25;5.80;;;3.50;;
75246;SDS011;63844;50.042;19.224;2023-08-31T02:51:47;5.40;;;3.90;;
75246;SDS011;63844;50.042;19.224;2023-08-31T02:53:53;5.60;;;3.80;;
75246;SDS011;63844;50.042;19.224;2023-08-31T02:56:08;5.60;;;4.20;;
75246;SDS011;63844;50.042;19.224;2023-08-31T02:57:46;5.00;;;3.70;;
75246;SDS011;63844;50.042;19.224;2023-08-31T02:59:22;5.30;;;3.80;;
75246;SDS011;63844;50.042;19.224;2023-08-31T03:01:11;5.90;;;4.50;;
75246;SDS011;63844;50.042;19.224;2023-08-31T03:02:53;4.80;;;3.70;;
75246;SDS011;63844;50.042;19.224;2023-08-31T03:04:28;4.70;;;4.20;;
75246;SDS011;63844;50.042;19.224;2023-08-31T03:06:07;5.20;;;3.90;;
75246;SDS011;63844;50.042;19.224;2023-08-31T03:07:46;8.80;;;3.60;;
75246;SDS011;63844;50.042;19.224;2023-08-31T03:09:22;5.30;;;3.90;;
75246;SDS011;63844;50.042;19.224;2023-08-31T03:10:58;4.20;;;3.60;;
75246;SDS011;63844;50.042;19.224;2023-08-31T03:14:09;4.10;;;3.20;;
75246;SDS011;63844;50.042;19.224;2023-08-31T03:15:44;7.00;;;3.60;;
75246;SDS011;63844;50.042;19.224;2023-08-31T03:17:20;4.20;;;3.20;;
75246;SDS011;63844;50.042;19.224;2023-08-31T03:18:56;4.90;;;3.80;;
75246;SDS011;63844;50.042;19.224;2023-08-31T03:20:32;5.50;;;3.50;;
75246;SDS011;63844;50.042;19.224;2023-08-31T03:22:12;5.60;;;3.40;;
75246;SDS011;63844;50.042;19.224;2023-08-31T03:23:48;6.70;;;3.30;;
75246;SDS011;63844;50.042;19.224;2023-08-31T03:25:26;3.70;;;3.30;;
75246;SDS011;63844;50.042;19.224;2023-08-31T03:27:05;5.00;;;3.70;;
75246;SDS011;63844;50.042;19.224;2023-08-31T03:28:44;4.70;;;3.10;;
75246;SDS011;63844;50.042;19.224;2023-08-31T03:30:20;4.60;;;2.90;;
75246;SDS011;63844;50.042;19.224;2023-08-31T03:31:59;4.40;;;3.70;;
75246;SDS011;63844;50.042;19.224;2023-08-31T03:33:39;4.20;;;3.40;;
75246;SDS011;63844;50.042;19.224;2023-08-31T03:35:14;4.70;;;3.80;;
75246;SDS011;63844;50.042;19.224;2023-08-31T03:36:51;4.90;;;3.40;;
75246;SDS011;63844;50.042;19.224;2023-08-31T03:38:28;4.30;;;3.40;;
75246;SDS011;63844;50.042;19.224;2023-08-31T03:40:03;4.00;;;3.30;;
75246;SDS011;63844;50.042;19.224;2023-08-31T03:41:41;4.50;;;3.10;;
75246;SDS011;63844;50.042;19.224;2023-08-31T03:43:38;5.50;;;3.00;;
75246;SDS011;63844;50.042;19.224;2023-08-31T03:45:15;5.70;;;3.40;;
75246;SDS011;63844;50.042;19.224;2023-08-31T03:46:51;3.60;;;3.20;;
75246;SDS011;63844;50.042;19.224;2023-08-31T03:48:27;4.80;;;2.90;;
75246;SDS011;63844;50.042;19.224;2023-08-31T03:51:39;2.70;;;2.40;;
75246;SDS011;63844;50.042;19.224;2023-08-31T03:53:34;2.80;;;2.50;;
75246;SDS011;63844;50.042;19.224;2023-08-31T03:55:12;3.70;;;2.40;;
75246;SDS011;63844;50.042;19.224;2023-08-31T03:56:49;3.30;;;2.60;;
75246;SDS011;63844;50.042;19.224;2023-08-31T03:58:24;3.70;;;2.60;;
75246;SDS011;63844;50.042;19.224;2023-08-31T04:00:07;4.70;;;2.00;;
75246;SDS011;63844;50.042;19.224;2023-08-31T04:01:45;2.80;;;1.80;;
75246;SDS011;63844;50.042;19.224;2023-08-31T04:03:43;3.20;;;1.70;;
75246;SDS011;63844;50.042;19.224;2023-08-31T04:05:23;3.50;;;2.10;;
75246;SDS011;63844;50.042;19.224;2023-08-31T04:06:58;2.00;;;1.70;;
75246;SDS011;63844;50.042;19.224;2023-08-31T04:08:35;1.70;;;1.50;;
75246;SDS011;63844;50.042;19.224;2023-08-31T04:10:32;2.10;;;1.90;;
75246;SDS011;63844;50.042;19.224;2023-08-31T04:12:20;2.60;;;1.60;;
75246;SDS011;63844;50.042;19.224;2023-08-31T04:13:55;2.50;;;1.80;;
75246;SDS011;63844;50.042;19.224;2023-08-31T04:15:31;4.40;;;1.70;;
75246;SDS011;63844;50.042;19.224;2023-08-31T04:17:12;2.70;;;1.70;;
75246;SDS011;63844;50.042;19.224;2023-08-31T04:18:47;4.70;;;1.70;;
75246;SDS011;63844;50.042;19.224;2023-08-31T04:20:26;3.00;;;1.50;;
75246;SDS011;63844;50.042;19.224;2023-08-31T04:22:01;2.50;;;1.70;;
75246;SDS011;63844;50.042;19.224;2023-08-31T04:23:39;1.80;;;1.40;;
75246;SDS011;63844;50.042;19.224;2023-08-31T04:25:15;1.80;;;1.40;;
75246;SDS011;63844;50.042;19.224;2023-08-31T04:26:58;4.00;;;2.00;;
75246;SDS011;63844;50.042;19.224;2023-08-31T04:28:34;1.50;;;1.40;;
75246;SDS011;63844;50.042;19.224;2023-08-31T04:30:09;6.30;;;1.60;;
75246;SDS011;63844;50.042;19.224;2023-08-31T04:31:45;1.90;;;1.60;;
75246;SDS011;63844;50.042;19.224;2023-08-31T04:33:21;2.70;;;1.70;;
75246;SDS011;63844;50.042;19.224;2023-08-31T04:34:56;2.30;;;1.70;;
75246;SDS011;63844;50.042;19.224;2023-08-31T04:36:40;2.00;;;1.50;;
75246;SDS011;63844;50.042;19.224;2023-08-31T04:38:24;2.80;;;1.90;;
75246;SDS011;63844;50.042;19.224;2023-08-31T04:40:00;1.90;;;1.60;;
75246;SDS011;63844;50.042;19.224;2023-08-31T04:41:35;2.30;;;1.40;;
75246;SDS011;63844;50.042;19.224;2023-08-31T04:43:12;1.50;;;1.40;;
75246;SDS011;63844;50.042;19.224;2023-08-31T04:44:47;2.40;;;1.30;;
75246;SDS011;63844;50.042;19.224;2023-08-31T04:46:23;1.80;;;1.60;;
75246;SDS011;63844;50.042;19.224;2023-08-31T04:47:58;1.40;;;1.20;;
75246;SDS011;63844;50.042;19.224;2023-08-31T04:51:26;4.70;;;1.20;;
75246;SDS011;63844;50.042;19.224;2023-08-31T04:53:09;3.20;;;1.00;;
75246;SDS011;63844;50.042;19.224;2023-08-31T04:55:18;1.60;;;1.00;;
75246;SDS011;63844;50.042;19.224;2023-08-31T04:56:58;2.90;;;1.40;;
75246;SDS011;63844;50.042;19.224;2023-08-31T04:58:34;1.50;;;0.90;;
75246;SDS011;63844;50.042;19.224;2023-08-31T05:00:10;1.80;;;1.00;;
75246;SDS011;63844;50.042;19.224;2023-08-31T05:01:47;2.40;;;0.80;;
75246;SDS011;63844;50.042;19.224;2023-08-31T05:03:22;1.40;;;1.10;;
75246;SDS011;63844;50.042;19.224;2023-08-31T05:04:58;1.30;;;0.80;;
75246;SDS011;63844;50.042;19.224;2023-08-31T05:06:34;1.10;;;0.90;;
75246;SDS011;63844;50.042;19.224;2023-08-31T05:09:45;1.80;;;0.90;;
75246;SDS011;63844;50.042;19.224;2023-08-31T05:11:29;1.00;;;0.80;;
75246;SDS011;63844;50.042;19.224;2023-08-31T05:14:41;2.60;;;1.30;;
75246;SDS011;63844;50.042;19.224;2023-08-31T05:16:17;1.20;;;0.80;;
75246;SDS011;63844;50.042;19.224;2023-08-31T05:17:55;1.30;;;1.10;;
75246;SDS011;63844;50.042;19.224;2023-08-31T05:19:38;1.00;;;0.80;;
75246;SDS011;63844;50.042;19.224;2023-08-31T05:21:15;1.40;;;1.00;;
75246;SDS011;63844;50.042;19.224;2023-08-31T05:22:53;1.10;;;0.90;;
75246;SDS011;63844;50.042;19.224;2023-08-31T05:24:29;1.10;;;0.90;;
75246;SDS011;63844;50.042;19.224;2023-08-31T05:26:05;1.10;;;1.00;;
75246;SDS011;63844;50.042;19.224;2023-08-31T05:27:42;1.00;;;0.80;;
75246;SDS011;63844;50.042;19.224;2023-08-31T05:29:38;0.90;;;0.80;;
75246;SDS011;63844;50.042;19.224;2023-08-31T05:35:38;3.40;;;0.80;;
75246;SDS011;63844;50.042;19.224;2023-08-31T05:37:13;1.40;;;0.50;;
75246;SDS011;63844;50.042;19.224;2023-08-31T05:40:27;0.80;;;0.50;;
75246;SDS011;63844;50.042;19.224;2023-08-31T05:42:02;0.80;;;0.70;;
75246;SDS011;63844;50.042;19.224;2023-08-31T05:43:42;1.40;;;0.60;;
75246;SDS011;63844;50.042;19.224;2023-08-31T05:45:22;1.20;;;0.50;;
75246;SDS011;63844;50.042;19.224;2023-08-31T05:47:15;1.50;;;0.70;;
75246;SDS011;63844;50.042;19.224;2023-08-31T05:48:56;1.70;;;0.80;;
75246;SDS011;63844;50.042;19.224;2023-08-31T05:51:16;1.50;;;0.80;;
75246;SDS011;63844;50.042;19.224;2023-08-31T05:52:58;0.80;;;0.50;;
75246;SDS011;63844;50.042;19.224;2023-08-31T05:54:35;4.40;;;0.80;;
75246;SDS011;63844;50.042;19.224;2023-08-31T05:56:11;2.80;;;0.70;;
75246;SDS011;63844;50.042;19.224;2023-08-31T05:57:48;1.50;;;0.70;;
75246;SDS011;63844;50.042;19.224;2023-08-31T05:59:24;0.80;;;0.60;;
75246;SDS011;63844;50.042;19.224;2023-08-31T06:02:39;1.40;;;0.90;;
75246;SDS011;63844;50.042;19.224;2023-08-31T06:04:17;0.80;;;0.60;;
75246;SDS011;63844;50.042;19.224;2023-08-31T06:05:55;1.90;;;0.50;;
75246;SDS011;63844;50.042;19.224;2023-08-31T06:07:41;1.00;;;0.60;;
75246;SDS011;63844;50.042;19.224;2023-08-31T06:09:17;1.00;;;0.50;;
75246;SDS011;63844;50.042;19.224;2023-08-31T06:10:56;2.30;;;0.80;;
75246;SDS011;63844;50.042;19.224;2023-08-31T06:12:48;2.60;;;0.90;;
75246;SDS011;63844;50.042;19.224;2023-08-31T06:14:25;1.20;;;0.90;;
75246;SDS011;63844;50.042;19.224;2023-08-31T06:16:13;1.90;;;1.00;;
75246;SDS011;63844;50.042;19.224;2023-08-31T06:17:50;1.40;;;0.90;;
75246;SDS011;63844;50.042;19.224;2023-08-31T06:19:32;1.40;;;1.20;;
75246;SDS011;63844;50.042;19.224;2023-08-31T06:21:22;2.00;;;1.20;;
75246;SDS011;63844;50.042;19.224;2023-08-31T06:22:59;0.80;;;0.60;;
75246;SDS011;63844;50.042;19.224;2023-08-31T06:24:36;2.30;;;0.80;;
75246;SDS011;63844;50.042;19.224;2023-08-31T06:27:49;1.50;;;0.90;;
75246;SDS011;63844;50.042;19.224;2023-08-31T06:29:25;1.60;;;0.80;;
75246;SDS011;63844;50.042;19.224;2023-08-31T06:31:00;2.50;;;1.10;;
75246;SDS011;63844;50.042;19.224;2023-08-31T06:32:42;1.20;;;0.90;;
75246;SDS011;63844;50.042;19.224;2023-08-31T06:34:20;2.00;;;1.10;;
75246;SDS011;63844;50.042;19.224;2023-08-31T06:36:00;4.80;;;0.90;;
75246;SDS011;63844;50.042;19.224;2023-08-31T06:37:36;1.10;;;0.90;;
75246;SDS011;63844;50.042;19.224;2023-08-31T06:39:14;1.20;;;0.90;;
75246;SDS011;63844;50.042;19.224;2023-08-31T06:41:03;1.50;;;1.10;;
75246;SDS011;63844;50.042;19.224;2023-08-31T06:42:47;0.90;;;0.60;;
75246;SDS011;63844;50.042;19.224;2023-08-31T06:44:24;1.60;;;0.50;;
75246;SDS011;63844;50.042;19.224;2023-08-31T06:46:03;1.10;;;0.50;;
75246;SDS011;63844;50.042;19.224;2023-08-31T06:48:00;1.30;;;0.80;;
75246;SDS011;63844;50.042;19.224;2023-08-31T06:49:36;1.10;;;0.70;;
75246;SDS011;63844;50.042;19.224;2023-08-31T06:51:11;2.10;;;0.70;;
75246;SDS011;63844;50.042;19.224;2023-08-31T06:52:47;2.80;;;1.50;;
75246;SDS011;63844;50.042;19.224;2023-08-31T06:54:22;0.90;;;0.80;;
75246;SDS011;63844;50.042;19.224;2023-08-31T06:55:59;1.20;;;0.60;;
75246;SDS011;63844;50.042;19.224;2023-08-31T06:57:34;2.70;;;0.80;;
75246;SDS011;63844;50.042;19.224;2023-08-31T06:59:14;1.70;;;0.80;;
75246;SDS011;63844;50.042;19.224;2023-08-31T07:00:49;1.50;;;0.70;;
75246;SDS011;63844;50.042;19.224;2023-08-31T07:02:28;1.60;;;0.50;;
75246;SDS011;63844;50.042;19.224;2023-08-31T07:04:05;0.90;;;0.80;;
75246;SDS011;63844;50.042;19.224;2023-08-31T07:05:43;0.60;;;0.60;;
75246;SDS011;63844;50.042;19.224;2023-08-31T07:07:19;1.00;;;0.80;;
75246;SDS011;63844;50.042;19.224;2023-08-31T07:09:02;1.20;;;0.80;;
75246;SDS011;63844;50.042;19.224;2023-08-31T07:10:42;2.70;;;1.50;;
75246;SDS011;63844;50.042;19.224;2023-08-31T07:12:19;1.10;;;1.00;;
75246;SDS011;63844;50.042;19.224;2023-08-31T07:13:56;3.40;;;1.30;;
75246;SDS011;63844;50.042;19.224;2023-08-31T07:15:35;2.00;;;1.00;;
75246;SDS011;63844;50.042;19.224;2023-08-31T07:18:45;2.70;;;1.00;;
75246;SDS011;63844;50.042;19.224;2023-08-31T07:20:21;1.60;;;1.10;;
75246;SDS011;63844;50.042;19.224;2023-08-31T07:21:56;3.00;;;1.00;;
75246;SDS011;63844;50.042;19.224;2023-08-31T07:23:31;1.90;;;1.50;;
75246;SDS011;63844;50.042;19.224;2023-08-31T07:25:07;2.50;;;1.30;;
75246;SDS011;63844;50.042;19.224;2023-08-31T07:26:42;1.50;;;1.40;;
75246;SDS011;63844;50.042;19.224;2023-08-31T07:28:18;1.40;;;1.10;;
75246;SDS011;63844;50.042;19.224;2023-08-31T07:29:54;1.00;;;0.90;;
75246;SDS011;63844;50.042;19.224;2023-08-31T07:31:33;4.90;;;1.70;;
75246;SDS011;63844;50.042;19.224;2023-08-31T07:33:11;1.80;;;1.30;;
75246;SDS011;63844;50.042;19.224;2023-08-31T07:34:46;1.30;;;0.90;;
75246;SDS011;63844;50.042;19.224;2023-08-31T07:36:22;1.30;;;1.10;;
75246;SDS011;63844;50.042;19.224;2023-08-31T07:37:59;1.10;;;1.00;;
75246;SDS011;63844;50.042;19.224;2023-08-31T07:39:36;1.40;;;1.30;;
75246;SDS011;63844;50.042;19.224;2023-08-31T07:41:11;3.50;;;1.20;;
75246;SDS011;63844;50.042;19.224;2023-08-31T07:42:47;1.30;;;1.00;;
75246;SDS011;63844;50.042;19.224;2023-08-31T07:44:23;1.70;;;1.60;;
75246;SDS011;63844;50.042;19.224;2023-08-31T07:46:00;1.70;;;1.10;;
75246;SDS011;63844;50.042;19.224;2023-08-31T07:47:35;1.90;;;1.40;;
75246;SDS011;63844;50.042;19.224;2023-08-31T07:49:10;1.50;;;1.30;;
75246;SDS011;63844;50.042;19.224;2023-08-31T07:50:46;1.70;;;1.60;;
75246;SDS011;63844;50.042;19.224;2023-08-31T07:52:21;2.00;;;1.60;;
75246;SDS011;63844;50.042;19.224;2023-08-31T07:53:56;2.20;;;1.60;;
75246;SDS011;63844;50.042;19.224;2023-08-31T07:55:32;1.70;;;1.50;;
75246;SDS011;63844;50.042;19.224;2023-08-31T07:57:07;3.20;;;3.10;;
75246;SDS011;63844;50.042;19.224;2023-08-31T07:58:44;4.70;;;4.40;;
75246;SDS011;63844;50.042;19.224;2023-08-31T08:01:55;4.90;;;4.70;;
75246;SDS011;63844;50.042;19.224;2023-08-31T08:05:05;4.40;;;4.20;;
75246;SDS011;63844;50.042;19.224;2023-08-31T08:06:41;8.70;;;8.10;;
75246;SDS011;63844;50.042;19.224;2023-08-31T08:08:17;13.20;;;12.60;;
75246;SDS011;63844;50.042;19.224;2023-08-31T08:09:54;10.30;;;9.80;;
75246;SDS011;63844;50.042;19.224;2023-08-31T08:11:29;8.80;;;8.20;;
75246;SDS011;63844;50.042;19.224;2023-08-31T08:13:05;10.80;;;10.20;;
75246;SDS011;63844;50.042;19.224;2023-08-31T08:14:43;10.60;;;10.00;;
75246;SDS011;63844;50.042;19.224;2023-08-31T08:16:19;9.80;;;9.40;;
75246;SDS011;63844;50.042;19.224;2023-08-31T08:17:56;8.60;;;8.20;;
75246;SDS011;63844;50.042;19.224;2023-08-31T08:19:32;9.50;;;8.90;;
75246;SDS011;63844;50.042;19.224;2023-08-31T08:21:08;5.00;;;4.60;;
75246;SDS011;63844;50.042;19.224;2023-08-31T08:22:44;4.30;;;4.10;;
75246;SDS011;63844;50.042;19.224;2023-08-31T08:24:22;7.40;;;7.10;;
75246;SDS011;63844;50.042;19.224;2023-08-31T08:27:36;5.80;;;5.50;;
75246;SDS011;63844;50.042;19.224;2023-08-31T08:29:12;3.80;;;3.60;;
75246;SDS011;63844;50.042;19.224;2023-08-31T08:30:48;5.60;;;5.40;;
75246;SDS011;63844;50.042;19.224;2023-08-31T08:33:58;4.60;;;4.30;;
75246;SDS011;63844;50.042;19.224;2023-08-31T08:35:33;5.30;;;5.00;;
75246;SDS011;63844;50.042;19.224;2023-08-31T08:38:44;3.00;;;2.80;;
75246;SDS011;63844;50.042;19.224;2023-08-31T08:41:55;2.40;;;2.30;;
75246;SDS011;63844;50.042;19.224;2023-08-31T08:43:33;3.50;;;3.20;;
75246;SDS011;63844;50.042;19.224;2023-08-31T08:45:12;2.80;;;2.70;;
75246;SDS011;63844;50.042;19.224;2023-08-31T08:46:52;4.10;;;3.80;;
75246;SDS011;63844;50.042;19.224;2023-08-31T08:48:28;2.60;;;2.40;;
75246;SDS011;63844;50.042;19.224;2023-08-31T08:50:04;4.60;;;4.30;;
75246;SDS011;63844;50.042;19.224;2023-08-31T08:51:40;3.00;;;2.80;;
75246;SDS011;63844;50.042;19.224;2023-08-31T08:53:16;1.80;;;1.70;;
75246;SDS011;63844;50.042;19.224;2023-08-31T08:54:51;2.80;;;2.50;;
75246;SDS011;63844;50.042;19.224;2023-08-31T08:56:28;2.00;;;1.90;;
75246;SDS011;63844;50.042;19.224;2023-08-31T08:58:05;3.90;;;2.60;;
75246;SDS011;63844;50.042;19.224;2023-08-31T08:59:41;2.30;;;1.90;;
75246;SDS011;63844;50.042;19.224;2023-08-31T09:02:52;2.70;;;1.80;;
75246;SDS011;63844;50.042;19.224;2023-08-31T09:04:29;2.80;;;2.50;;
75246;SDS011;63844;50.042;19.224;2023-08-31T09:06:05;2.70;;;2.60;;
75246;SDS011;63844;50.042;19.224;2023-08-31T09:11:25;2.70;;;2.30;;
75246;SDS011;63844;50.042;19.224;2023-08-31T09:13:04;2.00;;;1.80;;
75246;SDS011;63844;50.042;19.224;2023-08-31T09:14:41;2.50;;;2.30;;
75246;SDS011;63844;50.042;19.224;2023-08-31T09:18:05;2.40;;;1.60;;
75246;SDS011;63844;50.042;19.224;2023-08-31T09:19:41;2.50;;;1.90;;
75246;SDS011;63844;50.042;19.224;2023-08-31T09:22:52;3.10;;;2.30;;
75246;SDS011;63844;50.042;19.224;2023-08-31T09:24:39;3.40;;;1.80;;
75246;SDS011;63844;50.042;19.224;2023-08-31T09:26:15;2.60;;;1.80;;
75246;SDS011;63844;50.042;19.224;2023-08-31T09:27:52;2.00;;;1.80;;
75246;SDS011;63844;50.042;19.224;2023-08-31T09:29:27;2.10;;;2.00;;
75246;SDS011;63844;50.042;19.224;2023-08-31T09:31:08;2.20;;;2.00;;
75246;SDS011;63844;50.042;19.224;2023-08-31T09:32:43;1.90;;;1.80;;
75246;SDS011;63844;50.042;19.224;2023-08-31T09:34:32;1.60;;;1.50;;
75246;SDS011;63844;50.042;19.224;2023-08-31T09:36:09;2.90;;;1.90;;
75246;SDS011;63844;50.042;19.224;2023-08-31T09:37:53;2.10;;;1.80;;
75246;SDS011;63844;50.042;19.224;2023-08-31T09:39:39;1.70;;;1.50;;
75246;SDS011;63844;50.042;19.224;2023-08-31T09:41:14;2.00;;;1.80;;
75246;SDS011;63844;50.042;19.224;2023-08-31T09:42:50;2.20;;;2.00;;
75246;SDS011;63844;50.042;19.224;2023-08-31T09:44:26;4.00;;;1.60;;
75246;SDS011;63844;50.042;19.224;2023-08-31T09:46:02;1.80;;;1.70;;
75246;SDS011;63844;50.042;19.224;2023-08-31T09:47:39;1.70;;;1.60;;
75246;SDS011;63844;50.042;19.224;2023-08-31T09:49:16;3.10;;;2.90;;
75246;SDS011;63844;50.042;19.224;2023-08-31T09:50:55;2.00;;;1.10;;
75246;SDS011;63844;50.042;19.224;2023-08-31T09:52:52;1.30;;;1.20;;
75246;SDS011;63844;50.042;19.224;2023-08-31T09:54:31;1.50;;;1.40;;
75246;SDS011;63844;50.042;19.224;2023-08-31T09:56:15;2.50;;;1.40;;
75246;SDS011;63844;50.042;19.224;2023-08-31T09:57:57;1.70;;;1.30;;
75246;SDS011;63844;50.042;19.224;2023-08-31T09:59:34;2.20;;;1.20;;
75246;SDS011;63844;50.042;19.224;2023-08-31T10:01:11;2.60;;;1.10;;
75246;SDS011;63844;50.042;19.224;2023-08-31T10:02:47;2.10;;;1.50;;
75246;SDS011;63844;50.042;19.224;2023-08-31T10:04:25;2.50;;;1.30;;
75246;SDS011;63844;50.042;19.224;2023-08-31T10:06:03;1.50;;;1.20;;
75246;SDS011;63844;50.042;19.224;2023-08-31T10:07:41;1.80;;;1.60;;
75246;SDS011;63844;50.042;19.224;2023-08-31T10:09:20;1.70;;;1.60;;
75246;SDS011;63844;50.042;19.224;2023-08-31T10:10:58;1.10;;;1.00;;
75246;SDS011;63844;50.042;19.224;2023-08-31T10:12:35;1.60;;;1.20;;
75246;SDS011;63844;50.042;19.224;2023-08-31T10:14:11;2.20;;;1.50;;
75246;SDS011;63844;50.042;19.224;2023-08-31T10:15:48;3.10;;;1.50;;
75246;SDS011;63844;50.042;19.224;2023-08-31T10:17:25;1.40;;;1.30;;
75246;SDS011;63844;50.042;19.224;2023-08-31T10:19:02;2.50;;;1.40;;
75246;SDS011;63844;50.042;19.224;2023-08-31T10:20:39;1.70;;;1.30;;
75246;SDS011;63844;50.042;19.224;2023-08-31T10:22:18;2.60;;;1.80;;
75246;SDS011;63844;50.042;19.224;2023-08-31T10:27:22;2.70;;;1.70;;
75246;SDS011;63844;50.042;19.224;2023-08-31T10:28:59;1.90;;;1.80;;
75246;SDS011;63844;50.042;19.224;2023-08-31T10:30:35;1.50;;;1.30;;
75246;SDS011;63844;50.042;19.224;2023-08-31T10:32:16;1.50;;;1.30;;
75246;SDS011;63844;50.042;19.224;2023-08-31T10:37:23;1.20;;;1.10;;
75246;SDS011;63844;50.042;19.224;2023-08-31T10:39:06;1.80;;;1.30;;
75246;SDS011;63844;50.042;19.224;2023-08-31T10:42:42;1.90;;;1.60;;
75246;SDS011;63844;50.042;19.224;2023-08-31T10:44:26;2.10;;;1.90;;
75246;SDS011;63844;50.042;19.224;2023-08-31T10:46:25;3.70;;;2.00;;
75246;SDS011;63844;50.042;19.224;2023-08-31T10:48:07;1.90;;;1.80;;
75246;SDS011;63844;50.042;19.224;2023-08-31T10:49:45;1.80;;;1.70;;
75246;SDS011;63844;50.042;19.224;2023-08-31T10:51:30;2.20;;;1.80;;
75246;SDS011;63844;50.042;19.224;2023-08-31T10:53:09;1.50;;;1.40;;
75246;SDS011;63844;50.042;19.224;2023-08-31T10:54:46;2.40;;;2.00;;